createdAt,value
2022-11-16T00:01:57.325Z,97487.16
2022-11-16T00:04:25.318Z,97492.56
2022-11-16T00:06:53.318Z,97504.34
2022-11-16T00:09:26.916Z,97497.81
2022-11-16T00:11:57.061Z,97496.25
2022-11-16T00:14:27.077Z,97485.22
2022-11-16T00:16:57.204Z,97488.25
2022-11-16T00:19:26.050Z,97492.81
2022-11-16T00:21:55.011Z,97497.22
2022-11-16T00:24:23.872Z,97494.06
2022-11-16T00:26:52.249Z,97490.28
2022-11-16T00:29:22.109Z,97485.50
2022-11-16T00:31:51.477Z,97487.53
2022-11-16T00:34:21.422Z,97491.06
2022-11-16T00:36:49.914Z,97485.03
2022-11-16T00:39:19.175Z,97489.81
2022-11-16T00:41:47.947Z,97483.50
2022-11-16T00:44:16.340Z,97478.22
2022-11-16T00:46:44.633Z,97484.47
2022-11-16T00:49:12.621Z,97476.66
2022-11-16T00:51:41.903Z,97476.91
2022-11-16T00:54:10.820Z,97491.22
2022-11-16T00:56:40.732Z,97475.91
2022-11-16T00:59:09.325Z,97478.41
2022-11-16T01:01:37.421Z,97473.38
2022-11-16T01:04:06.686Z,97474.91
2022-11-16T01:06:34.656Z,97470.59
2022-11-16T01:09:04.096Z,97474.09
2022-11-16T01:11:49.854Z,97473.88
2022-11-16T01:14:17.910Z,97470.31
2022-11-16T01:16:45.928Z,97474.63
2022-11-16T01:19:13.924Z,97470.59
2022-11-16T01:21:41.988Z,97474.41
2022-11-16T01:24:11.306Z,97474.97
2022-11-16T01:26:39.330Z,97464.81
2022-11-16T01:29:07.255Z,97461.38
2022-11-16T01:31:40.768Z,97446.63
2022-11-16T01:34:09.243Z,97447.63
2022-11-16T01:36:37.322Z,97439.31
2022-11-16T01:39:06.753Z,97443.59
2022-11-16T01:41:45.932Z,97435.84
2022-11-16T01:44:56.290Z,97433.34
2022-11-16T01:47:24.359Z,97429.28
2022-11-16T01:49:57.075Z,97426.75
2022-11-16T01:52:34.951Z,97420.50
2022-11-16T01:55:04.351Z,97424.00
2022-11-16T01:57:48.342Z,97424.03
2022-11-16T02:00:18.156Z,97420.78
2022-11-16T02:02:57.020Z,97419.75
2022-11-16T02:05:55.369Z,97411.97
2022-11-16T02:08:54.422Z,97414.72
2022-11-16T02:11:39.288Z,97400.44
2022-11-16T02:14:25.922Z,97389.09
2022-11-16T02:17:02.484Z,97389.09
2022-11-16T02:20:04.058Z,97392.59
2022-11-16T02:22:49.401Z,97387.03
2022-11-16T02:25:24.084Z,97378.44
2022-11-16T02:28:08.041Z,97373.97
2022-11-16T02:30:42.245Z,97388.88
2022-11-16T02:33:13.358Z,97382.34
2022-11-16T02:35:46.222Z,97380.09
2022-11-16T02:38:19.088Z,97372.50
2022-11-16T02:40:51.034Z,97368.47
2022-11-16T02:43:27.628Z,97365.00
2022-11-16T02:46:01.388Z,97360.19
2022-11-16T02:48:35.764Z,97367.47
2022-11-16T02:51:06.546Z,97361.94
2022-11-16T02:53:40.388Z,97347.31
2022-11-16T02:56:13.206Z,97347.81
2022-11-16T02:58:41.953Z,97350.28
2022-11-16T03:01:16.976Z,97349.50
2022-11-16T03:03:53.053Z,97347.25
2022-11-16T03:06:24.407Z,97346.22
2022-11-16T03:09:00.885Z,97346.44
2022-11-16T03:11:49.534Z,97341.16
2022-11-16T03:14:22.168Z,97343.16
2022-11-16T03:16:54.915Z,97342.16
2022-11-16T03:19:30.677Z,97345.47
2022-11-16T03:22:04.840Z,97346.78
2022-11-16T03:24:33.623Z,97338.50
2022-11-16T03:27:06.908Z,97336.19
2022-11-16T03:29:41.795Z,97340.66
2022-11-16T03:32:18.333Z,97334.38
2022-11-16T03:34:55.774Z,97334.41
2022-11-16T03:37:26.082Z,97328.41
2022-11-16T03:39:54.741Z,97333.63
2022-11-16T03:42:26.835Z,97334.09
2022-11-16T03:44:56.146Z,97329.31
2022-11-16T03:47:27.498Z,97328.56
2022-11-16T03:49:55.425Z,97328.28
2022-11-16T03:52:25.624Z,97331.06
2022-11-16T03:54:53.675Z,97320.63
2022-11-16T03:57:21.859Z,97321.66
2022-11-16T03:59:55.552Z,97317.09
2022-11-16T04:02:23.672Z,97320.13
2022-11-16T04:05:13.076Z,97313.53
2022-11-16T04:07:58.518Z,97319.88
2022-11-16T04:10:44.305Z,97318.88
2022-11-16T04:13:32.213Z,97309.03
2022-11-16T04:16:17.632Z,97312.59
2022-11-16T04:19:03.954Z,97312.53
2022-11-16T04:21:55.670Z,97314.41
2022-11-16T04:24:31.605Z,97314.03
2022-11-16T04:27:21.975Z,97309.59
2022-11-16T04:29:50.251Z,97300.03
2022-11-16T04:32:36.153Z,97301.00
2022-11-16T04:35:21.735Z,97288.03
2022-11-16T04:37:52.618Z,97292.72
2022-11-16T04:40:38.981Z,97294.97
2022-11-16T04:43:06.289Z,97302.28
2022-11-16T04:45:55.894Z,97289.66
2022-11-16T04:48:27.580Z,97293.00
2022-11-16T04:50:56.225Z,97296.75
2022-11-16T04:53:28.025Z,97289.44
2022-11-16T04:56:09.616Z,97293.16
2022-11-16T04:58:38.800Z,97287.09
2022-11-16T05:01:06.920Z,97289.94
2022-11-16T05:03:35.218Z,97290.63
2022-11-16T05:06:03.147Z,97287.84
2022-11-16T05:08:32.745Z,97289.84
2022-11-16T05:11:01.472Z,97285.88
2022-11-16T05:13:29.973Z,97284.94
2022-11-16T05:15:58.242Z,97278.13
2022-11-16T05:18:27.078Z,97279.91
2022-11-16T05:21:02.825Z,97276.91
2022-11-16T05:23:55.678Z,97269.59
2022-11-16T05:26:26.043Z,97270.94
2022-11-16T05:28:55.374Z,97274.94
2022-11-16T05:31:23.328Z,97271.88
2022-11-16T05:33:51.390Z,97266.97
2022-11-16T05:36:20.288Z,97274.97
2022-11-16T05:38:52.714Z,97268.22
2022-11-16T05:41:25.431Z,97273.44
2022-11-16T05:43:55.446Z,97278.44
2022-11-16T05:46:23.865Z,97278.00
2022-11-16T05:48:52.336Z,97270.72
2022-11-16T05:51:20.272Z,97270.47
2022-11-16T05:53:49.905Z,97265.97
2022-11-16T05:56:22.359Z,97263.72
2022-11-16T05:58:51.160Z,97265.78
2022-11-16T06:01:19.143Z,97260.03
2022-11-16T06:03:47.153Z,97256.53
2022-11-16T06:09:02.073Z,97249.97
2022-11-16T06:11:35.840Z,97250.00
2022-11-16T06:14:05.512Z,97255.22
2022-11-16T06:16:34.651Z,97250.75
2022-11-16T06:19:06.493Z,97255.06
2022-11-16T06:21:34.498Z,97251.75
2022-11-16T06:24:09.336Z,97254.44
2022-11-16T06:26:37.789Z,97252.69
2022-11-16T06:29:06.757Z,97252.69
2022-11-16T06:31:36.035Z,97258.75
2022-11-16T06:34:04.523Z,97251.94
2022-11-16T06:36:32.484Z,97254.25
2022-11-16T06:39:01.375Z,97257.25
2022-11-16T06:41:37.583Z,97253.47
2022-11-16T06:44:09.495Z,97254.03
2022-11-16T06:46:41.453Z,97258.25
2022-11-16T06:49:09.699Z,97245.00
2022-11-16T06:51:37.779Z,97246.72
2022-11-16T06:54:06.577Z,97239.63
2022-11-16T06:56:36.668Z,97236.16
2022-11-16T06:59:04.793Z,97229.69
2022-11-16T07:01:32.956Z,97229.72
2022-11-16T07:04:06.288Z,97229.66
2022-11-16T07:06:34.347Z,97231.94
2022-11-16T07:09:02.317Z,97230.25
2022-11-16T07:11:33.393Z,97230.22
2022-11-16T07:14:03.486Z,97230.22
2022-11-16T07:16:31.614Z,97217.00
2022-11-16T07:19:02.827Z,97223.31
2022-11-16T07:21:33.288Z,97221.09
2022-11-16T07:24:05.066Z,97222.31
2022-11-16T07:26:33.638Z,97219.81
2022-11-16T07:29:11.328Z,97219.06
2022-11-16T07:31:43.795Z,97218.06
2022-11-16T07:34:30.076Z,97220.31
2022-11-16T07:37:10.364Z,97215.81
2022-11-16T07:39:38.413Z,97206.25
2022-11-16T07:42:11.900Z,97209.25
2022-11-16T07:45:03.589Z,97217.06
2022-11-16T07:47:38.433Z,97216.09
2022-11-16T07:50:10.941Z,97221.94
2022-11-16T07:52:39.258Z,97220.13
2022-11-16T07:55:10.894Z,97217.88
2022-11-16T07:57:39.799Z,97224.19
2022-11-16T08:00:11.966Z,97233.44
2022-11-16T08:02:46.668Z,97228.97
2022-11-16T08:05:19.201Z,97231.44
2022-11-16T08:07:49.473Z,97238.47
2022-11-16T08:10:19.143Z,97235.72
2022-11-16T08:12:47.235Z,97241.47
2022-11-16T08:15:16.829Z,97245.75
2022-11-16T08:17:47.118Z,97238.47
2022-11-16T08:20:15.539Z,97235.22
2022-11-16T08:22:43.602Z,97231.69
2022-11-16T08:25:13.577Z,97235.97
2022-11-16T08:27:43.811Z,97222.41
2022-11-16T08:30:13.401Z,97221.41
2022-11-16T08:32:42.884Z,97228.94
2022-11-16T08:35:12.145Z,97228.19
2022-11-16T08:40:27.791Z,97230.69
2022-11-16T08:42:57.194Z,97235.44
2022-11-16T08:45:25.210Z,97232.44
2022-11-16T08:48:03.620Z,97232.97
2022-11-16T08:50:55.413Z,97233.69
2022-11-16T08:53:24.216Z,97228.44
2022-11-16T08:55:53.025Z,97230.69
2022-11-16T08:58:21.099Z,97224.66
2022-11-16T09:00:49.074Z,97249.44
2022-11-16T09:03:18.378Z,97257.19
2022-11-16T09:05:46.855Z,97240.94
2022-11-16T09:08:14.754Z,97245.94
2022-11-16T09:10:42.652Z,97252.44
2022-11-16T09:13:10.622Z,97239.69
2022-11-16T09:15:38.548Z,97242.66
2022-11-16T09:18:06.532Z,97227.66
2022-11-16T09:20:35.798Z,97219.63
2022-11-16T09:23:03.708Z,97219.91
2022-11-16T09:25:31.623Z,97218.66
2022-11-16T09:27:59.801Z,97216.16
2022-11-16T09:30:27.755Z,97212.41
2022-11-16T09:32:55.658Z,97203.91
2022-11-16T09:35:24.175Z,97204.66
2022-11-16T09:37:53.447Z,97202.91
2022-11-16T09:40:21.580Z,97198.91
2022-11-16T09:43:02.150Z,97200.13
2022-11-16T09:45:38.918Z,97200.88
2022-11-16T09:48:12.422Z,97204.16
2022-11-16T09:50:47.268Z,97199.16
2022-11-16T09:53:25.460Z,97195.88
2022-11-16T09:55:55.217Z,97186.84
2022-11-16T09:58:30.502Z,97189.13
2022-11-16T10:01:06.220Z,97182.09
2022-11-16T10:03:42.773Z,97176.31
2022-11-16T10:06:21.034Z,97166.34
2022-11-16T10:08:51.992Z,97166.53
2022-11-16T10:11:33.333Z,97163.53
2022-11-16T10:14:12.333Z,97152.78
2022-11-16T10:16:49.924Z,97147.25
2022-11-16T10:19:30.565Z,97151.53
2022-11-16T10:22:06.320Z,97144.78
2022-11-16T10:24:46.189Z,97147.81
2022-11-16T10:27:30.210Z,97141.28
2022-11-16T10:30:08.187Z,97137.28
2022-11-16T10:32:39.785Z,97138.53
2022-11-16T10:35:17.130Z,97136.50
2022-11-16T10:37:48.644Z,97134.50
2022-11-16T10:40:22.285Z,97136.28
2022-11-16T10:42:58.888Z,97131.97
2022-11-16T10:45:33.301Z,97123.22
2022-11-16T10:48:12.427Z,97127.22
2022-11-16T10:50:45.237Z,97124.22
2022-11-16T10:53:15.441Z,97124.19
2022-11-16T10:55:44.757Z,97135.28
2022-11-16T10:58:13.255Z,97127.25
2022-11-16T11:00:47.177Z,97131.50
2022-11-16T11:03:16.058Z,97127.50
2022-11-16T11:05:54.534Z,97129.00
2022-11-16T11:08:28.339Z,97129.00
2022-11-16T11:11:23.250Z,97126.00
2022-11-16T11:14:05.931Z,97132.00
2022-11-16T11:16:33.873Z,97123.75
2022-11-16T11:19:19.839Z,97128.50
2022-11-16T11:21:48.603Z,97126.25
2022-11-16T11:24:48.165Z,97128.75
2022-11-16T11:27:08.140Z,97134.25
2022-11-16T11:29:38.707Z,97121.47
2022-11-16T11:32:09.179Z,97124.25
2022-11-16T11:34:42.835Z,97126.50
2022-11-16T11:37:16.657Z,97125.00
2022-11-16T11:39:44.799Z,97123.50
2022-11-16T11:42:24.742Z,97122.75
2022-11-16T11:44:59.091Z,97116.72
2022-11-16T11:48:00.349Z,97128.00
2022-11-16T11:50:38.141Z,97121.25
2022-11-16T11:53:08.998Z,97116.72
2022-11-16T11:55:36.921Z,97117.47
2022-11-16T11:58:08.773Z,97109.94
2022-11-16T12:00:49.045Z,97114.00
2022-11-16T12:03:44.413Z,97112.75
2022-11-16T12:06:20.524Z,97112.22
2022-11-16T12:09:05.919Z,97113.47
2022-11-16T12:11:45.714Z,97117.75
2022-11-16T12:14:32.107Z,97107.97
2022-11-16T12:17:11.161Z,97118.00
2022-11-16T12:19:59.515Z,97102.47
2022-11-16T12:22:50.701Z,97105.72
2022-11-16T12:25:26.273Z,97099.97
2022-11-16T12:28:10.607Z,97104.97
2022-11-16T12:30:51.357Z,97099.97
2022-11-16T12:33:31.006Z,97096.94
2022-11-16T12:36:06.686Z,97091.91
2022-11-16T12:38:46.951Z,97091.38
2022-11-16T12:41:48.479Z,97093.22
2022-11-16T12:44:20.792Z,97097.16
2022-11-16T12:46:59.417Z,97093.47
2022-11-16T12:49:50.149Z,97094.47
2022-11-16T12:52:35.259Z,97092.91
2022-11-16T12:55:28.127Z,97102.44
2022-11-16T12:58:20.427Z,97084.38
2022-11-16T13:01:02.767Z,97084.91
2022-11-16T13:03:39.542Z,97090.66
2022-11-16T13:06:11.130Z,97076.88
2022-11-16T13:08:51.106Z,97084.66
2022-11-16T13:11:23.971Z,97081.38
2022-11-16T13:13:59.205Z,97083.66
2022-11-16T13:16:28.692Z,97078.44
2022-11-16T13:18:59.187Z,97067.13
2022-11-16T13:21:43.705Z,97078.91
2022-11-16T13:24:28.387Z,97086.16
2022-11-16T13:27:06.125Z,97080.13
2022-11-16T13:29:41.945Z,97083.66
2022-11-16T13:32:18.133Z,97082.91
2022-11-16T13:34:47.963Z,97079.13
2022-11-16T13:37:45.164Z,97078.66
2022-11-16T13:40:26.157Z,97079.88
2022-11-16T13:43:06.265Z,97075.38
2022-11-16T13:45:39.064Z,97080.34
2022-11-16T13:48:18.842Z,97074.84
2022-11-16T13:50:54.556Z,97072.34
2022-11-16T13:54:25.095Z,97076.13
2022-11-16T13:56:18.201Z,97061.81
2022-11-16T13:58:48.600Z,97071.59
2022-11-16T14:01:17.454Z,97074.28
2022-11-16T14:03:46.945Z,97069.84
2022-11-16T14:06:52.278Z,97071.59
2022-11-16T14:09:44.120Z,97077.09
2022-11-16T14:13:00.564Z,97069.59
2022-11-16T14:15:34.376Z,97076.88
2022-11-16T14:18:24.412Z,97060.84
2022-11-16T14:21:10.756Z,97063.34
2022-11-16T14:23:57.787Z,97060.31
2022-11-16T14:26:38.486Z,97063.78
2022-11-16T14:29:21.372Z,97065.75
2022-11-16T14:31:52.948Z,97057.06
2022-11-16T14:34:23.780Z,97071.56
2022-11-16T14:36:53.746Z,97067.25
2022-11-16T14:39:34.579Z,97061.56
2022-11-16T14:42:05.759Z,97063.28
2022-11-16T14:44:38.956Z,97058.03
2022-11-16T14:47:17.106Z,97056.75
2022-11-16T14:49:48.035Z,97059.75
2022-11-16T14:52:20.051Z,97053.56
2022-11-16T14:54:53.132Z,97055.06
2022-11-16T14:57:22.895Z,97055.09
2022-11-16T14:59:51.283Z,97046.06
2022-11-16T15:02:23.386Z,97049.34
2022-11-16T15:04:53.921Z,97057.25
2022-11-16T15:07:25.695Z,97061.56
2022-11-16T15:09:56.371Z,97055.28
2022-11-16T15:12:42.665Z,97054.56
2022-11-16T15:15:16.978Z,97050.56
2022-11-16T15:17:47.695Z,97063.34
2022-11-16T15:20:20.198Z,97053.84
2022-11-16T15:22:54.461Z,97059.28
2022-11-16T15:25:29.450Z,97057.06
2022-11-16T15:27:59.461Z,97055.56
2022-11-16T15:30:29.762Z,97054.59
2022-11-16T15:32:58.288Z,97052.31
2022-11-16T15:35:30.214Z,97048.09
2022-11-16T15:38:08.366Z,97050.78
2022-11-16T15:40:36.945Z,97052.50
2022-11-16T15:43:06.749Z,97053.78
2022-11-16T15:45:35.415Z,97054.72
2022-11-16T15:48:04.978Z,97051.84
2022-11-16T15:50:33.209Z,97049.75
2022-11-16T15:53:01.187Z,97048.06
2022-11-16T15:55:37.754Z,97052.28
2022-11-16T15:58:13.197Z,97040.50
2022-11-16T16:00:41.976Z,97040.53
2022-11-16T16:03:21.426Z,97046.03
2022-11-16T16:05:49.964Z,97044.72
2022-11-16T16:08:32.764Z,97040.78
2022-11-16T16:11:28.784Z,97033.47
2022-11-16T16:14:01.689Z,97046.88
2022-11-16T16:16:36.133Z,97041.94
2022-11-16T16:19:09.727Z,97046.00
2022-11-16T16:21:43.843Z,97045.13
2022-11-16T16:24:33.299Z,97049.19
2022-11-16T16:27:02.615Z,97052.38
2022-11-16T16:29:30.556Z,97052.13
2022-11-16T16:31:58.522Z,97050.63
2022-11-16T16:34:26.435Z,97053.81
2022-11-16T16:36:54.370Z,97050.81
2022-11-16T16:39:22.262Z,97047.03
2022-11-16T16:41:50.190Z,97052.28
2022-11-16T16:44:19.478Z,97053.28
2022-11-16T16:46:47.459Z,97051.38
2022-11-16T16:49:15.354Z,97049.09
2022-11-16T16:51:43.320Z,97054.06
2022-11-16T16:54:14.825Z,97054.28
2022-11-16T16:56:42.780Z,97058.66
2022-11-16T16:59:11.588Z,97054.38
2022-11-16T17:01:41.608Z,97045.72
2022-11-16T17:04:09.819Z,97047.88
2022-11-16T17:06:39.262Z,97050.88
2022-11-16T17:09:10.361Z,97050.31
2022-11-16T17:11:38.290Z,97053.47
2022-11-16T17:14:07.887Z,97046.78
2022-11-16T17:16:35.905Z,97044.56
2022-11-16T17:19:06.196Z,97051.88
2022-11-16T17:21:34.152Z,97057.75
2022-11-16T17:24:02.063Z,97053.47
2022-11-16T17:26:30.050Z,97056.94
2022-11-16T17:28:58.871Z,97054.00
2022-11-16T17:31:28.015Z,97057.34
2022-11-16T17:33:57.533Z,97059.75
2022-11-16T17:36:26.916Z,97059.63
2022-11-16T17:38:54.866Z,97055.97
2022-11-16T17:41:24.191Z,97063.16
2022-11-16T17:43:53.926Z,97059.00
2022-11-16T17:46:23.520Z,97064.91
2022-11-16T17:48:52.078Z,97073.22
2022-11-16T17:51:22.011Z,97070.19
2022-11-16T17:53:51.529Z,97071.88
2022-11-16T17:56:21.195Z,97064.91
2022-11-16T17:58:50.309Z,97065.97
2022-11-16T18:01:18.706Z,97074.22
2022-11-16T18:03:46.799Z,97059.81
2022-11-16T18:06:17.102Z,97072.72
2022-11-16T18:08:45.710Z,97072.34
2022-11-16T18:11:16.816Z,97069.25
2022-11-16T18:13:45.603Z,97068.25
2022-11-16T18:16:15.624Z,97068.16
2022-11-16T18:18:44.620Z,97071.53
2022-11-16T18:21:19.893Z,97059.31
2022-11-16T18:23:48.461Z,97061.22
2022-11-16T18:26:20.615Z,97062.16
2022-11-16T18:28:49.014Z,97062.34
2022-11-16T18:31:18.196Z,97064.41
2022-11-16T18:33:46.556Z,97066.38
2022-11-16T18:36:14.510Z,97066.53
2022-11-16T18:38:42.740Z,97077.34
2022-11-16T18:41:20.200Z,97065.16
2022-11-16T18:43:53.358Z,97074.31
2022-11-16T18:46:23.132Z,97067.41
2022-11-16T18:48:51.653Z,97066.41
2022-11-16T18:51:20.862Z,97072.59
2022-11-16T18:53:48.862Z,97070.47
2022-11-16T18:56:20.712Z,97071.03
2022-11-16T18:58:51.935Z,97066.09
2022-11-16T19:01:22.091Z,97077.41
2022-11-16T19:03:50.592Z,97080.34
2022-11-16T19:06:18.763Z,97077.94
2022-11-16T19:08:53.735Z,97080.06
2022-11-16T19:11:25.809Z,97072.28
2022-11-16T19:13:55.858Z,97085.00
2022-11-16T19:16:25.526Z,97075.91
2022-11-16T19:18:53.613Z,97068.69
2022-11-16T19:21:22.984Z,97076.66
2022-11-16T19:23:53.150Z,97069.44
2022-11-16T19:26:23.210Z,97065.63
2022-11-16T19:28:53.949Z,97074.66
2022-11-16T19:31:23.296Z,97073.22
2022-11-16T19:33:54.752Z,97087.88
2022-11-16T19:36:23.367Z,97077.47
2022-11-16T19:38:51.723Z,97079.25
2022-11-16T19:41:22.519Z,97081.91
2022-11-16T19:43:52.875Z,97081.38
2022-11-16T19:46:21.594Z,97077.88
2022-11-16T19:48:50.423Z,97077.53
2022-11-16T19:51:20.231Z,97076.72
2022-11-16T19:53:48.474Z,97068.69
2022-11-16T19:56:18.453Z,97073.00
2022-11-16T19:58:46.631Z,97071.41
2022-11-16T20:01:18.120Z,97063.78
2022-11-16T20:03:46.829Z,97080.09
2022-11-16T20:06:16.096Z,97070.50
2022-11-16T20:08:48.510Z,97076.91
2022-11-16T20:11:18.163Z,97080.75
2022-11-16T20:13:46.184Z,97085.50
2022-11-16T20:16:16.198Z,97088.00
2022-11-16T20:18:45.217Z,97093.63
2022-11-16T20:21:17.674Z,97093.75
2022-11-16T20:23:45.776Z,97092.06
2022-11-16T20:26:14.657Z,97097.47
2022-11-16T20:28:44.140Z,97090.53
2022-11-16T20:31:13.885Z,97099.31
2022-11-16T20:33:43.893Z,97104.72
2022-11-16T20:36:13.045Z,97100.59
2022-11-16T20:38:41.243Z,97091.84
2022-11-16T20:41:10.644Z,97094.19
2022-11-16T20:43:40.285Z,97096.63
2022-11-16T20:46:08.865Z,97100.66
2022-11-16T20:48:37.272Z,97099.66
2022-11-16T20:51:07.649Z,97094.44
2022-11-16T20:53:36.393Z,97092.13
2022-11-16T20:56:07.619Z,97087.03
2022-11-16T20:58:36.245Z,97085.53
2022-11-16T21:01:05.687Z,97087.88
2022-11-16T21:03:34.416Z,97079.81
2022-11-16T21:06:02.916Z,97074.56
2022-11-16T21:08:32.410Z,97064.13
2022-11-16T21:11:00.466Z,97073.56
2022-11-16T21:13:45.764Z,97080.03
2022-11-16T21:16:15.962Z,97066.94
2022-11-16T21:18:43.921Z,97078.06
2022-11-16T21:21:13.535Z,97067.72
2022-11-16T21:23:47.298Z,97068.28
2022-11-16T21:26:16.365Z,97062.00
2022-11-16T21:28:44.833Z,97066.56
2022-11-16T21:31:14.486Z,97063.47
2022-11-16T21:33:43.693Z,97065.94
2022-11-16T21:36:13.117Z,97068.22
2022-11-16T21:38:42.782Z,97067.25
2022-11-16T21:41:11.726Z,97066.03
2022-11-16T21:43:44.325Z,97065.03
2022-11-16T21:46:13.852Z,97054.38
2022-11-16T21:48:42.129Z,97054.66
2022-11-16T21:51:12.041Z,97058.13
2022-11-16T21:53:40.682Z,97053.41
2022-11-16T21:56:13.878Z,97059.66
2022-11-16T21:58:42.212Z,97057.34
2022-11-16T22:01:11.733Z,97063.00
2022-11-16T22:03:40.102Z,97071.94
2022-11-16T22:06:30.019Z,97066.63
2022-11-16T22:08:58.022Z,97071.78
2022-11-16T22:11:27.390Z,97070.25
2022-11-16T22:13:55.299Z,97069.00
2022-11-16T22:16:23.747Z,97078.56
2022-11-16T22:18:52.106Z,97069.19
2022-11-16T22:21:20.107Z,97070.81
2022-11-16T22:23:48.060Z,97075.31
2022-11-16T22:26:16.040Z,97065.03
2022-11-16T22:28:45.513Z,97077.88
2022-11-16T22:31:15.090Z,97075.09
2022-11-16T22:33:43.374Z,97073.22
2022-11-16T22:36:13.419Z,97070.59
2022-11-16T22:38:41.366Z,97068.19
2022-11-16T22:41:10.062Z,97071.31
2022-11-16T22:43:39.135Z,97071.88
2022-11-16T22:46:08.735Z,97078.69
2022-11-16T22:48:38.726Z,97080.56
2022-11-16T22:51:08.217Z,97075.88
2022-11-16T22:53:36.704Z,97078.06
2022-11-16T22:56:09.084Z,97069.03
2022-11-16T22:58:38.121Z,97072.81
2022-11-16T23:01:09.556Z,97071.13
2022-11-16T23:03:38.741Z,97069.31
2022-11-16T23:06:07.495Z,97071.53
2022-11-16T23:08:36.358Z,97080.09
2022-11-16T23:11:23.371Z,97071.09
2022-11-16T23:14:10.190Z,97074.88
2022-11-16T23:16:40.192Z,97068.66
2022-11-16T23:19:28.933Z,97062.34
2022-11-16T23:22:15.425Z,97060.22
2022-11-16T23:25:01.188Z,97052.00
2022-11-16T23:27:35.618Z,97051.28
2022-11-16T23:30:12.143Z,97052.84
2022-11-16T23:32:42.394Z,97047.84
2022-11-16T23:35:11.498Z,97059.03
2022-11-16T23:37:51.733Z,97048.41
2022-11-16T23:40:19.988Z,97049.16
2022-11-16T23:43:05.655Z,97048.94
2022-11-16T23:45:33.600Z,97044.81
2022-11-16T23:48:03.234Z,97043.56
2022-11-16T23:50:31.203Z,97041.81
2022-11-16T23:52:59.160Z,97046.53
2022-11-16T23:55:27.820Z,97052.47
2022-11-16T23:57:55.988Z,97050.22
